sensor_id;sensor_type;location;lat;lon;timestamp;pressure;altitude;pressure_sealevel;temperature;humidity
73457;BME280;61691;53.072;6.582;2023-07-30T00:02:19;100721.28;;;16.95;74.06
73457;BME280;61691;53.072;6.582;2023-07-30T00:04:46;100731.84;;;16.96;74.07
73457;BME280;61691;53.072;6.582;2023-07-30T00:07:13;100744.69;;;17.01;74.26
73457;BME280;61691;53.072;6.582;2023-07-30T00:09:40;100738.03;;;16.97;74.32
73457;BME280;61691;53.072;6.582;2023-07-30T00:12:08;100739.03;;;16.96;74.67
73457;BME280;61691;53.072;6.582;2023-07-30T00:14:34;100746.06;;;16.97;74.60
73457;BME280;61691;53.072;6.582;2023-07-30T00:17:02;100751.03;;;17.00;74.62
73457;BME280;61691;53.072;6.582;2023-07-30T00:19:29;100759.28;;;16.98;74.67
73457;BME280;61691;53.072;6.582;2023-07-30T00:21:56;100741.44;;;16.91;74.49
73457;BME280;61691;53.072;6.582;2023-07-30T00:24:22;100737.59;;;16.85;74.66
73457;BME280;61691;53.072;6.582;2023-07-30T00:26:50;100746.78;;;16.91;74.83
73457;BME280;61691;53.072;6.582;2023-07-30T00:29:16;100727.13;;;16.76;74.82
73457;BME280;61691;53.072;6.582;2023-07-30T00:31:43;100745.44;;;16.87;75.04
73457;BME280;61691;53.072;6.582;2023-07-30T00:34:10;100729.59;;;16.77;74.93
73457;BME280;61691;53.072;6.582;2023-07-30T00:36:36;100740.81;;;16.81;75.17
73457;BME280;61691;53.072;6.582;2023-07-30T00:39:03;100749.50;;;16.83;74.89
73457;BME280;61691;53.072;6.582;2023-07-30T00:41:30;100750.81;;;16.87;75.21
73457;BME280;61691;53.072;6.582;2023-07-30T00:43:56;100718.31;;;16.67;75.26
73457;BME280;61691;53.072;6.582;2023-07-30T00:46:24;100742.47;;;16.82;75.07
73457;BME280;61691;53.072;6.582;2023-07-30T00:48:51;100746.03;;;16.74;75.34
73457;BME280;61691;53.072;6.582;2023-07-30T00:51:19;100751.22;;;16.76;75.30
73457;BME280;61691;53.072;6.582;2023-07-30T00:53:46;100757.22;;;16.78;75.28
73457;BME280;61691;53.072;6.582;2023-07-30T00:56:13;100752.06;;;16.76;75.21
73457;BME280;61691;53.072;6.582;2023-07-30T00:58:40;100751.75;;;16.71;75.47
73457;BME280;61691;53.072;6.582;2023-07-30T01:01:07;100742.91;;;16.62;75.37
73457;BME280;61691;53.072;6.582;2023-07-30T01:03:34;100694.22;;;16.36;75.22
73457;BME280;61691;53.072;6.582;2023-07-30T01:06:01;100755.25;;;16.72;75.60
73457;BME280;61691;53.072;6.582;2023-07-30T01:08:28;100745.25;;;16.66;75.57
73457;BME280;61691;53.072;6.582;2023-07-30T01:10:55;100760.44;;;16.73;75.92
73457;BME280;61691;53.072;6.582;2023-07-30T01:13:22;100759.25;;;16.76;75.88
73457;BME280;61691;53.072;6.582;2023-07-30T01:15:49;100731.03;;;16.65;75.91
73457;BME280;61691;53.072;6.582;2023-07-30T01:18:16;100751.53;;;16.81;76.00
73457;BME280;61691;53.072;6.582;2023-07-30T01:20:43;100773.91;;;16.88;75.88
73457;BME280;61691;53.072;6.582;2023-07-30T01:23:09;100766.03;;;16.86;75.94
73457;BME280;61691;53.072;6.582;2023-07-30T01:25:36;100746.03;;;16.74;75.92
73457;BME280;61691;53.072;6.582;2023-07-30T01:28:05;100770.22;;;16.89;75.89
73457;BME280;61691;53.072;6.582;2023-07-30T01:30:38;100766.88;;;16.87;76.11
73457;BME280;61691;53.072;6.582;2023-07-30T01:33:07;100768.53;;;16.88;75.82
73457;BME280;61691;53.072;6.582;2023-07-30T01:35:37;100763.00;;;16.89;76.01
73457;BME280;61691;53.072;6.582;2023-07-30T01:38:05;100761.88;;;16.84;76.11
73457;BME280;61691;53.072;6.582;2023-07-30T01:40:32;100758.22;;;16.77;76.18
73457;BME280;61691;53.072;6.582;2023-07-30T01:42:59;100728.19;;;16.58;76.22
73457;BME280;61691;53.072;6.582;2023-07-30T01:45:26;100767.59;;;16.81;76.39
73457;BME280;61691;53.072;6.582;2023-07-30T01:47:53;100760.91;;;16.77;76.40
73457;BME280;61691;53.072;6.582;2023-07-30T01:50:20;100769.59;;;16.79;76.15
73457;BME280;61691;53.072;6.582;2023-07-30T01:52:46;100742.41;;;16.59;76.52
73457;BME280;61691;53.072;6.582;2023-07-30T01:55:13;100773.66;;;16.75;76.65
73457;BME280;61691;53.072;6.582;2023-07-30T01:57:40;100766.13;;;16.70;76.36
73457;BME280;61691;53.072;6.582;2023-07-30T02:00:07;100756.97;;;16.64;76.55
73457;BME280;61691;53.072;6.582;2023-07-30T02:02:34;100754.63;;;16.61;76.47
73457;BME280;61691;53.072;6.582;2023-07-30T02:05:02;100757.81;;;16.65;76.91
73457;BME280;61691;53.072;6.582;2023-07-30T02:07:29;100772.16;;;16.72;76.67
73457;BME280;61691;53.072;6.582;2023-07-30T02:09:56;100764.94;;;16.73;76.73
73457;BME280;61691;53.072;6.582;2023-07-30T02:12:23;100765.81;;;16.65;76.54
73457;BME280;61691;53.072;6.582;2023-07-30T02:14:49;100765.50;;;16.68;76.49
73457;BME280;61691;53.072;6.582;2023-07-30T02:17:16;100742.63;;;16.49;76.85
73457;BME280;61691;53.072;6.582;2023-07-30T02:19:43;100764.66;;;16.59;76.87
73457;BME280;61691;53.072;6.582;2023-07-30T02:22:10;100776.03;;;16.61;76.95
73457;BME280;61691;53.072;6.582;2023-07-30T02:24:37;100763.00;;;16.58;76.93
73457;BME280;61691;53.072;6.582;2023-07-30T02:27:04;100760.47;;;16.57;76.80
73457;BME280;61691;53.072;6.582;2023-07-30T02:29:30;100754.00;;;16.51;76.84
73457;BME280;61691;53.072;6.582;2023-07-30T02:31:57;100729.00;;;16.36;77.01
73457;BME280;61691;53.072;6.582;2023-07-30T02:34:26;100718.19;;;16.21;77.13
73457;BME280;61691;53.072;6.582;2023-07-30T02:36:53;100764.41;;;16.46;77.09
73457;BME280;61691;53.072;6.582;2023-07-30T02:39:19;100748.38;;;16.38;77.12
73457;BME280;61691;53.072;6.582;2023-07-30T02:41:47;100731.41;;;16.23;76.93
73457;BME280;61691;53.072;6.582;2023-07-30T02:44:13;100763.06;;;16.42;77.29
73457;BME280;61691;53.072;6.582;2023-07-30T02:46:40;100760.09;;;16.37;77.11
73457;BME280;61691;53.072;6.582;2023-07-30T02:49:07;100769.78;;;16.38;77.37
73457;BME280;61691;53.072;6.582;2023-07-30T02:51:35;100747.78;;;16.20;77.26
73457;BME280;61691;53.072;6.582;2023-07-30T02:54:07;100772.78;;;16.35;77.32
73457;BME280;61691;53.072;6.582;2023-07-30T02:56:34;100772.78;;;16.35;77.27
73457;BME280;61691;53.072;6.582;2023-07-30T02:59:01;100751.63;;;16.17;77.04
73457;BME280;61691;53.072;6.582;2023-07-30T03:01:28;100762.78;;;16.29;77.32
73457;BME280;61691;53.072;6.582;2023-07-30T03:03:54;100763.47;;;16.31;77.24
73457;BME280;61691;53.072;6.582;2023-07-30T03:06:21;100774.31;;;16.38;77.43
73457;BME280;61691;53.072;6.582;2023-07-30T03:08:48;100747.78;;;16.20;77.37
73457;BME280;61691;53.072;6.582;2023-07-30T03:11:14;100746.59;;;16.22;77.24
73457;BME280;61691;53.072;6.582;2023-07-30T03:13:41;100760.44;;;16.26;77.24
73457;BME280;61691;53.072;6.582;2023-07-30T03:16:08;100713.09;;;15.96;77.27
73457;BME280;61691;53.072;6.582;2023-07-30T03:18:34;100756.09;;;16.25;77.60
73457;BME280;61691;53.072;6.582;2023-07-30T03:21:01;100750.63;;;16.18;77.35
73457;BME280;61691;53.072;6.582;2023-07-30T03:23:28;100763.63;;;16.30;77.30
73457;BME280;61691;53.072;6.582;2023-07-30T03:25:55;100716.09;;;16.01;77.67
73457;BME280;61691;53.072;6.582;2023-07-30T03:28:22;100747.91;;;16.26;77.41
73457;BME280;61691;53.072;6.582;2023-07-30T03:30:49;100749.09;;;16.24;77.28
73457;BME280;61691;53.072;6.582;2023-07-30T03:33:16;100763.25;;;16.33;77.61
73457;BME280;61691;53.072;6.582;2023-07-30T03:35:42;100765.78;;;16.34;77.87
73457;BME280;61691;53.072;6.582;2023-07-30T03:38:09;100765.09;;;16.32;77.74
73457;BME280;61691;53.072;6.582;2023-07-30T03:40:36;100750.41;;;16.28;77.40
73457;BME280;61691;53.072;6.582;2023-07-30T03:43:02;100751.44;;;16.27;77.44
73457;BME280;61691;53.072;6.582;2023-07-30T03:45:29;100756.09;;;16.25;77.44
73457;BME280;61691;53.072;6.582;2023-07-30T03:47:56;100732.09;;;16.09;77.18
73457;BME280;61691;53.072;6.582;2023-07-30T03:50:23;100734.78;;;16.09;77.61
73457;BME280;61691;53.072;6.582;2023-07-30T03:52:49;100760.81;;;16.23;77.61
73457;BME280;61691;53.072;6.582;2023-07-30T03:55:16;100738.09;;;16.11;77.31
73457;BME280;61691;53.072;6.582;2023-07-30T03:57:43;100761.81;;;16.22;77.48
73457;BME280;61691;53.072;6.582;2023-07-30T04:00:10;100767.88;;;16.16;77.44
73457;BME280;61691;53.072;6.582;2023-07-30T04:02:36;100754.16;;;16.11;77.49
73457;BME280;61691;53.072;6.582;2023-07-30T04:05:03;100760.00;;;16.14;77.51
73457;BME280;61691;53.072;6.582;2023-07-30T04:07:30;100730.81;;;15.97;77.60
73457;BME280;61691;53.072;6.582;2023-07-30T04:09:57;100757.00;;;16.09;77.42
73457;BME280;61691;53.072;6.582;2023-07-30T04:12:23;100752.84;;;16.07;77.53
73457;BME280;61691;53.072;6.582;2023-07-30T04:14:50;100728.66;;;15.92;77.71
73457;BME280;61691;53.072;6.582;2023-07-30T04:17:17;100765.84;;;16.18;77.85
73457;BME280;61691;53.072;6.582;2023-07-30T04:19:43;100750.00;;;16.08;77.85
73457;BME280;61691;53.072;6.582;2023-07-30T04:22:10;100753.66;;;16.15;77.70
73457;BME280;61691;53.072;6.582;2023-07-30T04:24:37;100750.66;;;16.10;77.81
73457;BME280;61691;53.072;6.582;2023-07-30T04:27:03;100781.34;;;16.31;77.98
73457;BME280;61691;53.072;6.582;2023-07-30T04:29:30;100739.31;;;16.08;77.43
73457;BME280;61691;53.072;6.582;2023-07-30T04:31:57;100774.81;;;16.33;77.73
73457;BME280;61691;53.072;6.582;2023-07-30T04:34:24;100751.81;;;16.16;77.90
73457;BME280;61691;53.072;6.582;2023-07-30T04:36:50;100782.31;;;16.38;77.76
73457;BME280;61691;53.072;6.582;2023-07-30T04:39:17;100769.13;;;16.36;77.67
73457;BME280;61691;53.072;6.582;2023-07-30T04:41:44;100760.44;;;16.34;77.54
73457;BME280;61691;53.072;6.582;2023-07-30T04:44:11;100720.91;;;16.13;77.58
73457;BME280;61691;53.072;6.582;2023-07-30T04:46:38;100774.41;;;16.52;77.59
73457;BME280;61691;53.072;6.582;2023-07-30T04:49:05;100779.72;;;16.69;77.80
73457;BME280;61691;53.072;6.582;2023-07-30T04:51:31;100782.59;;;16.90;77.47
73457;BME280;61691;53.072;6.582;2023-07-30T04:53:58;100772.72;;;17.13;77.59
73457;BME280;61691;53.072;6.582;2023-07-30T04:56:25;100774.78;;;17.49;77.18
73457;BME280;61691;53.072;6.582;2023-07-30T04:58:53;100779.69;;;17.60;76.43
73457;BME280;61691;53.072;6.582;2023-07-30T05:01:20;100764.31;;;17.62;76.15
73457;BME280;61691;53.072;6.582;2023-07-30T05:03:47;100768.47;;;17.64;75.26
73457;BME280;61691;53.072;6.582;2023-07-30T05:06:14;100767.34;;;17.59;75.05
73457;BME280;61691;53.072;6.582;2023-07-30T05:08:40;100749.34;;;17.45;75.38
73457;BME280;61691;53.072;6.582;2023-07-30T05:11:07;100766.75;;;17.49;74.97
73457;BME280;61691;53.072;6.582;2023-07-30T05:13:34;100772.09;;;17.49;75.04
73457;BME280;61691;53.072;6.582;2023-07-30T05:16:00;100768.31;;;17.43;74.87
73457;BME280;61691;53.072;6.582;2023-07-30T05:18:28;100741.81;;;17.25;74.82
73457;BME280;61691;53.072;6.582;2023-07-30T05:20:55;100767.38;;;17.36;74.99
73457;BME280;61691;53.072;6.582;2023-07-30T05:23:22;100764.53;;;17.29;75.18
73457;BME280;61691;53.072;6.582;2023-07-30T05:25:48;100751.88;;;17.23;75.29
73457;BME280;61691;53.072;6.582;2023-07-30T05:28:15;100779.84;;;17.44;75.21
73457;BME280;61691;53.072;6.582;2023-07-30T05:30:42;100786.06;;;17.44;75.33
73457;BME280;61691;53.072;6.582;2023-07-30T05:33:09;100795.22;;;17.50;74.96
73457;BME280;61691;53.072;6.582;2023-07-30T05:35:38;100775.78;;;17.48;75.21
73457;BME280;61691;53.072;6.582;2023-07-30T05:38:04;100782.66;;;17.50;75.22
73457;BME280;61691;53.072;6.582;2023-07-30T05:40:31;100782.94;;;17.55;75.00
73457;BME280;61691;53.072;6.582;2023-07-30T05:42:58;100783.75;;;17.56;75.50
73457;BME280;61691;53.072;6.582;2023-07-30T05:45:24;100781.09;;;17.56;75.07
73457;BME280;61691;53.072;6.582;2023-07-30T05:47:51;100785.06;;;17.60;74.98
73457;BME280;61691;53.072;6.582;2023-07-30T05:50:18;100764.72;;;17.51;75.28
73457;BME280;61691;53.072;6.582;2023-07-30T05:52:45;100778.41;;;17.56;75.02
73457;BME280;61691;53.072;6.582;2023-07-30T05:55:11;100781.03;;;17.64;75.19
73457;BME280;61691;53.072;6.582;2023-07-30T05:57:38;100788.00;;;17.73;75.43
73457;BME280;61691;53.072;6.582;2023-07-30T06:00:05;100773.28;;;17.69;75.49
73457;BME280;61691;53.072;6.582;2023-07-30T06:02:32;100799.00;;;17.78;75.20
73457;BME280;61691;53.072;6.582;2023-07-30T06:04:59;100786.25;;;17.80;75.23
73457;BME280;61691;53.072;6.582;2023-07-30T06:07:26;100791.97;;;17.77;75.06
73457;BME280;61691;53.072;6.582;2023-07-30T06:09:53;100734.94;;;17.46;75.17
73457;BME280;61691;53.072;6.582;2023-07-30T06:12:19;100777.34;;;17.65;75.21
73457;BME280;61691;53.072;6.582;2023-07-30T06:14:46;100772.69;;;17.59;75.28
73457;BME280;61691;53.072;6.582;2023-07-30T06:17:13;100773.22;;;17.54;75.25
73457;BME280;61691;53.072;6.582;2023-07-30T06:19:39;100802.41;;;17.72;75.45
73457;BME280;61691;53.072;6.582;2023-07-30T06:22:06;100779.66;;;17.68;75.26
73457;BME280;61691;53.072;6.582;2023-07-30T06:24:33;100783.66;;;17.72;75.12
73457;BME280;61691;53.072;6.582;2023-07-30T06:27:01;100799.00;;;17.78;75.31
73457;BME280;61691;53.072;6.582;2023-07-30T06:29:28;100731.88;;;17.34;75.19
73457;BME280;61691;53.072;6.582;2023-07-30T06:31:55;100789.38;;;17.69;75.32
73457;BME280;61691;53.072;6.582;2023-07-30T06:34:21;100782.72;;;17.65;75.36
73457;BME280;61691;53.072;6.582;2023-07-30T06:36:48;100784.72;;;17.63;75.28
73457;BME280;61691;53.072;6.582;2023-07-30T06:39:15;100792.88;;;17.69;75.39
73457;BME280;61691;53.072;6.582;2023-07-30T06:41:41;100777.34;;;17.65;75.44
73457;BME280;61691;53.072;6.582;2023-07-30T06:44:08;100798.34;;;17.76;75.36
73457;BME280;61691;53.072;6.582;2023-07-30T06:46:35;100809.00;;;17.84;75.62
73457;BME280;61691;53.072;6.582;2023-07-30T06:49:02;100798.56;;;17.89;75.83
73457;BME280;61691;53.072;6.582;2023-07-30T06:51:29;100804.22;;;18.24;76.08
73457;BME280;61691;53.072;6.582;2023-07-30T06:53:57;100811.94;;;18.56;75.77
73457;BME280;61691;53.072;6.582;2023-07-30T06:56:24;100786.00;;;18.63;75.59
73457;BME280;61691;53.072;6.582;2023-07-30T06:58:51;100808.34;;;19.21;75.59
73457;BME280;61691;53.072;6.582;2023-07-30T07:01:17;100802.19;;;19.69;74.81
73457;BME280;61691;53.072;6.582;2023-07-30T07:03:44;100806.50;;;19.92;73.54
73457;BME280;61691;53.072;6.582;2023-07-30T07:06:11;100819.16;;;19.98;72.68
73457;BME280;61691;53.072;6.582;2023-07-30T07:08:38;100823.06;;;19.95;71.74
73457;BME280;61691;53.072;6.582;2023-07-30T07:11:05;100815.66;;;19.97;72.06
73457;BME280;61691;53.072;6.582;2023-07-30T07:13:31;100829.41;;;20.16;71.51
73457;BME280;61691;53.072;6.582;2023-07-30T07:15:58;100791.38;;;19.91;70.67
73457;BME280;61691;53.072;6.582;2023-07-30T07:18:25;100810.66;;;19.94;70.14
73457;BME280;61691;53.072;6.582;2023-07-30T07:20:52;100812.66;;;19.86;70.08
73457;BME280;61691;53.072;6.582;2023-07-30T07:23:21;100808.59;;;19.68;69.96
73457;BME280;61691;53.072;6.582;2023-07-30T07:25:48;100800.63;;;19.82;71.06
73457;BME280;61691;53.072;6.582;2023-07-30T07:28:15;100791.31;;;20.12;69.87
73457;BME280;61691;53.072;6.582;2023-07-30T07:30:42;100798.22;;;20.21;69.36
73457;BME280;61691;53.072;6.582;2023-07-30T07:33:10;100823.97;;;20.78;70.19
73457;BME280;61691;53.072;6.582;2023-07-30T07:35:39;100820.84;;;21.29;69.36
73457;BME280;61691;53.072;6.582;2023-07-30T07:38:06;100827.09;;;21.75;67.36
73457;BME280;61691;53.072;6.582;2023-07-30T07:40:39;100813.00;;;21.86;64.68
73457;BME280;61691;53.072;6.582;2023-07-30T07:43:07;100822.69;;;22.33;65.68
73457;BME280;61691;53.072;6.582;2023-07-30T07:45:34;100822.78;;;22.71;64.92
73457;BME280;61691;53.072;6.582;2023-07-30T07:48:01;100832.63;;;23.73;64.38
73457;BME280;61691;53.072;6.582;2023-07-30T07:50:28;100816.75;;;24.63;61.50
73457;BME280;61691;53.072;6.582;2023-07-30T07:52:54;100835.75;;;25.41;57.64
73457;BME280;61691;53.072;6.582;2023-07-30T07:55:21;100824.13;;;25.87;55.37
73457;BME280;61691;53.072;6.582;2023-07-30T07:57:48;100819.78;;;25.98;53.46
73457;BME280;61691;53.072;6.582;2023-07-30T08:00:15;100811.53;;;25.93;52.17
73457;BME280;61691;53.072;6.582;2023-07-30T08:02:41;100821.91;;;25.96;51.50
73457;BME280;61691;53.072;6.582;2023-07-30T08:05:08;100815.41;;;25.73;49.39
73457;BME280;61691;53.072;6.582;2023-07-30T08:07:35;100819.72;;;25.10;49.01
73457;BME280;61691;53.072;6.582;2023-07-30T08:10:02;100827.44;;;24.40;47.99
73457;BME280;61691;53.072;6.582;2023-07-30T08:12:31;100813.91;;;23.72;49.11
73457;BME280;61691;53.072;6.582;2023-07-30T08:14:59;100829.59;;;23.25;49.61
73457;BME280;61691;53.072;6.582;2023-07-30T08:17:26;100820.28;;;22.83;50.27
73457;BME280;61691;53.072;6.582;2023-07-30T08:19:52;100849.06;;;22.45;50.98
73457;BME280;61691;53.072;6.582;2023-07-30T08:22:19;100787.69;;;21.61;51.09
73457;BME280;61691;53.072;6.582;2023-07-30T08:24:46;100801.56;;;21.32;51.32
73457;BME280;61691;53.072;6.582;2023-07-30T08:27:13;100845.47;;;21.12;51.68
73457;BME280;61691;53.072;6.582;2023-07-30T08:29:40;100827.47;;;20.65;52.43
73457;BME280;61691;53.072;6.582;2023-07-30T08:32:07;100807.94;;;20.22;53.23
73457;BME280;61691;53.072;6.582;2023-07-30T08:34:34;100814.47;;;20.06;53.75
73457;BME280;61691;53.072;6.582;2023-07-30T08:37:01;100819.31;;;19.90;54.33
73457;BME280;61691;53.072;6.582;2023-07-30T08:39:28;100812.41;;;19.81;55.57
73457;BME280;61691;53.072;6.582;2023-07-30T08:41:55;100807.63;;;19.76;55.97
73457;BME280;61691;53.072;6.582;2023-07-30T08:44:22;100825.69;;;19.82;56.33
73457;BME280;61691;53.072;6.582;2023-07-30T08:46:49;100826.19;;;19.71;56.53
73457;BME280;61691;53.072;6.582;2023-07-30T08:49:17;100837.31;;;19.61;56.65
73457;BME280;61691;53.072;6.582;2023-07-30T08:51:45;100811.78;;;19.36;56.77
73457;BME280;61691;53.072;6.582;2023-07-30T08:54:15;100809.88;;;19.30;57.15
73457;BME280;61691;53.072;6.582;2023-07-30T08:56:43;100829.97;;;19.34;57.78
73457;BME280;61691;53.072;6.582;2023-07-30T08:59:10;100812.44;;;19.17;57.90
73457;BME280;61691;53.072;6.582;2023-07-30T09:01:39;100817.03;;;19.23;58.50
73457;BME280;61691;53.072;6.582;2023-07-30T09:04:07;100809.22;;;19.28;58.71
73457;BME280;61691;53.072;6.582;2023-07-30T09:06:35;100812.22;;;19.40;58.90
73457;BME280;61691;53.072;6.582;2023-07-30T09:09:02;100810.31;;;19.55;59.32
73457;BME280;61691;53.072;6.582;2023-07-30T09:11:29;100821.13;;;19.83;59.68
73457;BME280;61691;53.072;6.582;2023-07-30T09:14:01;100830.03;;;20.11;59.06
73457;BME280;61691;53.072;6.582;2023-07-30T09:16:28;100813.50;;;20.14;59.08
73457;BME280;61691;53.072;6.582;2023-07-30T09:18:55;100840.16;;;20.37;59.05
73457;BME280;61691;53.072;6.582;2023-07-30T09:21:32;100846.19;;;20.45;58.90
73457;BME280;61691;53.072;6.582;2023-07-30T09:24:02;100871.06;;;20.47;58.79
73457;BME280;61691;53.072;6.582;2023-07-30T09:26:44;100858.50;;;20.27;58.76
73457;BME280;61691;53.072;6.582;2023-07-30T09:29:11;100892.28;;;20.29;59.06
73457;BME280;61691;53.072;6.582;2023-07-30T09:31:52;100873.47;;;20.08;59.68
73457;BME280;61691;53.072;6.582;2023-07-30T09:34:22;100861.47;;;19.83;60.62
73457;BME280;61691;53.072;6.582;2023-07-30T09:36:54;100852.31;;;19.56;61.09
73457;BME280;61691;53.072;6.582;2023-07-30T09:39:23;100872.09;;;19.48;61.50
73457;BME280;61691;53.072;6.582;2023-07-30T09:41:52;100865.78;;;19.20;62.13
73457;BME280;61691;53.072;6.582;2023-07-30T09:44:20;100880.25;;;19.19;62.85
73457;BME280;61691;53.072;6.582;2023-07-30T09:46:49;100876.94;;;19.17;63.34
73457;BME280;61691;53.072;6.582;2023-07-30T09:49:17;100879.81;;;19.15;63.71
73457;BME280;61691;53.072;6.582;2023-07-30T09:51:44;100868.97;;;19.09;63.96
73457;BME280;61691;53.072;6.582;2023-07-30T09:54:14;100847.72;;;18.92;64.71
73457;BME280;61691;53.072;6.582;2023-07-30T09:56:42;100889.72;;;19.15;64.66
73457;BME280;61691;53.072;6.582;2023-07-30T09:59:09;100886.00;;;19.16;64.57
73457;BME280;61691;53.072;6.582;2023-07-30T10:01:41;100874.53;;;19.07;64.55
73457;BME280;61691;53.072;6.582;2023-07-30T10:04:10;100879.72;;;19.09;64.75
73457;BME280;61691;53.072;6.582;2023-07-30T10:06:48;100867.69;;;19.05;64.53
73457;BME280;61691;53.072;6.582;2023-07-30T10:09:17;100863.91;;;18.99;64.99
73457;BME280;61691;53.072;6.582;2023-07-30T10:11:46;100875.56;;;19.06;65.13
73457;BME280;61691;53.072;6.582;2023-07-30T10:14:21;100858.44;;;18.92;65.49
73457;BME280;61691;53.072;6.582;2023-07-30T10:16:53;100879.25;;;19.05;65.50
73457;BME280;61691;53.072;6.582;2023-07-30T10:19:24;100892.94;;;19.10;65.49
73457;BME280;61691;53.072;6.582;2023-07-30T10:24:39;100877.75;;;19.17;66.11
73457;BME280;61691;53.072;6.582;2023-07-30T10:27:09;100871.28;;;19.33;66.50
73457;BME280;61691;53.072;6.582;2023-07-30T10:29:39;100822.78;;;19.20;66.50
73457;BME280;61691;53.072;6.582;2023-07-30T10:32:08;100856.13;;;19.61;66.83
73457;BME280;61691;53.072;6.582;2023-07-30T10:34:46;100886.72;;;19.82;67.06
73457;BME280;61691;53.072;6.582;2023-07-30T10:37:24;100874.00;;;19.97;67.10
73457;BME280;61691;53.072;6.582;2023-07-30T10:39:52;100867.75;;;20.18;67.05
73457;BME280;61691;53.072;6.582;2023-07-30T10:42:19;100883.88;;;20.39;66.81
73457;BME280;61691;53.072;6.582;2023-07-30T10:44:46;100873.34;;;20.44;66.51
73457;BME280;61691;53.072;6.582;2023-07-30T10:47:13;100873.56;;;20.49;66.20
73457;BME280;61691;53.072;6.582;2023-07-30T10:50:02;100853.53;;;20.30;65.68
73457;BME280;61691;53.072;6.582;2023-07-30T10:52:29;100863.03;;;20.26;65.78
73457;BME280;61691;53.072;6.582;2023-07-30T10:55:00;100882.03;;;20.18;65.96
73457;BME280;61691;53.072;6.582;2023-07-30T10:57:31;100888.53;;;20.02;66.16
73457;BME280;61691;53.072;6.582;2023-07-30T11:00:02;100840.94;;;19.54;66.11
73457;BME280;61691;53.072;6.582;2023-07-30T11:02:29;100888.78;;;19.58;66.52
73457;BME280;61691;53.072;6.582;2023-07-30T11:04:56;100885.91;;;19.45;67.17
73457;BME280;61691;53.072;6.582;2023-07-30T11:07:23;100896.69;;;19.45;67.29
73457;BME280;61691;53.072;6.582;2023-07-30T11:10:00;100880.66;;;19.37;67.78
73457;BME280;61691;53.072;6.582;2023-07-30T11:12:30;100891.81;;;19.55;68.26
73457;BME280;61691;53.072;6.582;2023-07-30T11:15:03;100875.56;;;19.63;68.75
73457;BME280;61691;53.072;6.582;2023-07-30T11:17:30;100874.94;;;19.83;68.88
73457;BME280;61691;53.072;6.582;2023-07-30T11:19:57;100876.69;;;19.97;69.28
73457;BME280;61691;53.072;6.582;2023-07-30T11:22:31;100888.75;;;20.29;69.74
73457;BME280;61691;53.072;6.582;2023-07-30T11:24:58;100872.66;;;20.35;69.53
73457;BME280;61691;53.072;6.582;2023-07-30T11:27:25;100850.38;;;20.48;69.37
73457;BME280;61691;53.072;6.582;2023-07-30T11:29:57;100873.28;;;20.72;68.82
73457;BME280;61691;53.072;6.582;2023-07-30T11:32:27;100878.31;;;20.81;67.69
73457;BME280;61691;53.072;6.582;2023-07-30T11:34:56;100886.59;;;20.80;67.18
73457;BME280;61691;53.072;6.582;2023-07-30T11:37:23;100880.56;;;20.78;66.80
73457;BME280;61691;53.072;6.582;2023-07-30T11:39:50;100889.13;;;20.88;66.53
73457;BME280;61691;53.072;6.582;2023-07-30T11:42:19;100885.41;;;20.89;65.75
73457;BME280;61691;53.072;6.582;2023-07-30T11:44:46;100898.22;;;20.87;65.06
73457;BME280;61691;53.072;6.582;2023-07-30T11:47:20;100904.63;;;20.79;64.40
73457;BME280;61691;53.072;6.582;2023-07-30T11:49:58;100881.09;;;20.60;63.78
73457;BME280;61691;53.072;6.582;2023-07-30T11:52:24;100920.06;;;20.64;62.94
73457;BME280;61691;53.072;6.582;2023-07-30T11:55:04;100902.38;;;20.48;63.05
73457;BME280;61691;53.072;6.582;2023-07-30T11:57:35;100915.34;;;20.38;62.95
73457;BME280;61691;53.072;6.582;2023-07-30T12:00:02;100923.53;;;20.30;63.28
73457;BME280;61691;53.072;6.582;2023-07-30T12:02:29;100910.63;;;20.19;63.64
73457;BME280;61691;53.072;6.582;2023-07-30T12:04:56;100920.84;;;20.30;63.95
73457;BME280;61691;53.072;6.582;2023-07-30T12:07:40;100918.69;;;20.40;64.52
73457;BME280;61691;53.072;6.582;2023-07-30T12:10:12;100895.47;;;20.39;65.33
73457;BME280;61691;53.072;6.582;2023-07-30T12:12:46;100905.13;;;20.62;65.37
73457;BME280;61691;53.072;6.582;2023-07-30T12:15:13;100905.63;;;20.72;65.25
73457;BME280;61691;53.072;6.582;2023-07-30T12:17:39;100945.72;;;20.88;64.74
73457;BME280;61691;53.072;6.582;2023-07-30T12:20:06;100949.38;;;20.74;63.96
73457;BME280;61691;53.072;6.582;2023-07-30T12:22:34;100958.41;;;20.60;63.46
73457;BME280;61691;53.072;6.582;2023-07-30T12:25:02;100973.66;;;20.31;63.36
73457;BME280;61691;53.072;6.582;2023-07-30T12:27:32;101015.25;;;20.07;63.72
73457;BME280;61691;53.072;6.582;2023-07-30T12:29:58;100977.66;;;19.71;63.79
73457;BME280;61691;53.072;6.582;2023-07-30T12:32:25;100976.78;;;19.35;64.06
73457;BME280;61691;53.072;6.582;2023-07-30T12:34:54;100995.69;;;19.27;64.34
73457;BME280;61691;53.072;6.582;2023-07-30T12:37:21;101001.75;;;19.14;64.73
73457;BME280;61691;53.072;6.582;2023-07-30T12:39:48;100988.59;;;19.05;65.38
73457;BME280;61691;53.072;6.582;2023-07-30T12:42:15;100980.25;;;19.00;65.73
73457;BME280;61691;53.072;6.582;2023-07-30T12:44:41;100963.31;;;18.84;66.02
73457;BME280;61691;53.072;6.582;2023-07-30T12:47:08;100978.31;;;18.93;66.41
73457;BME280;61691;53.072;6.582;2023-07-30T12:49:35;100979.03;;;18.87;66.64
73457;BME280;61691;53.072;6.582;2023-07-30T12:52:03;100933.59;;;18.57;66.97
73457;BME280;61691;53.072;6.582;2023-07-30T12:54:29;100969.44;;;18.78;66.89
73457;BME280;61691;53.072;6.582;2023-07-30T12:56:56;100967.84;;;18.84;67.13